PWSweather.com
Personal Weather Stations
Station Observations
UWIDEPER1
Brown County, Depere, WI 54115

Brown CountyDepere, WI 54115

Lat: 44.44, Lon: -88.05

Elevation: 610

Station Type: Acurite 5in1

Latest ConditionsUpdated 11:00:01 AM CST Sunday, Jan 26, 2020
Currently Today's Max Today's Min Today's Average
Temperature 37.6°F3.1°C 37.6°F3.1°C 32.7°F0.4°C 33.6°F0.9°C
Dew Point 32.0°F0.0°C 32.7°F0.4°C 31.2°F-0.4°C 31.7°F-0.2°C
Winds 5.8 mph W9.3 kmh W 6.9 mph -11.1 kmh - - 2.6 mph 4.2 kmh
Wind Gusts 8.1 mph13.0 kmh 11.5 mph18.5 kmh - -
Humidity 80% 96% 80% 93%
Pressure 29.85 in1010.8 mb 29.85 in1010.8 mb 29.82 in1009.8 mb -
Precipitation - 0.08 in2.0 mm - -
Hour Temp Dew Point Humidity Winds Wind Gusts Pressure Precip Precip Rate Daily Precip Total
11:00 AM 37.6°F3.1°C 32.0°F0.0°C 80% 5.8 mph W9.3 kmh W 8.1 mph13.0 kmh 29.85 in1010.8 mb - 0.03 in0.8 mm 0.08 in2.0 mm
10:55 AM 37.5°F3.1°C 32.5°F0.3°C 82% 5.8 mph WSW9.3 kmh WSW 9.2 mph14.8 kmh 29.85 in1010.8 mb - 0.03 in0.8 mm 0.07 in1.8 mm
10:50 AM 37.4°F3.0°C 32.1°F0.1°C 81% 4.6 mph W7.4 kmh W 8.1 mph13.0 kmh 29.85 in1010.8 mb - 0.02 in0.5 mm 0.07 in1.8 mm
10:45 AM 37.4°F3.0°C 32.7°F0.4°C 83% 3.5 mph WSW5.6 kmh WSW 8.1 mph13.0 kmh 29.85 in1010.8 mb - 0.02 in0.5 mm 0.06 in1.5 mm
10:40 AM 37.0°F2.8°C 32.1°F0.1°C 82% 5.8 mph W9.3 kmh W 10.4 mph16.7 kmh 29.84 in1010.5 mb - 0.02 in0.5 mm 0.06 in1.5 mm
10:35 AM 37.0°F2.8°C 32.4°F0.2°C 83% 4.6 mph W7.4 kmh W 8.1 mph13.0 kmh 29.85 in1010.8 mb - 0.02 in0.5 mm 0.06 in1.5 mm
10:30 AM 36.9°F2.7°C 32.2°F0.1°C 83% 4.6 mph W7.4 kmh W 10.4 mph16.7 kmh 29.85 in1010.8 mb - 0.02 in0.5 mm 0.06 in1.5 mm
10:25 AM 36.6°F2.6°C 31.9°F-0.1°C 83% 4.6 mph WNW7.4 kmh WNW 6.9 mph11.1 kmh 29.85 in1010.8 mb - 0.02 in0.5 mm 0.06 in1.5 mm
10:20 AM 36.7°F2.6°C 32.0°F0.0°C 83% 3.5 mph WNW5.6 kmh WNW 5.8 mph9.3 kmh 29.85 in1010.8 mb - 0.02 in0.5 mm 0.06 in1.5 mm
10:15 AM 36.7°F2.6°C 32.0°F0.0°C 83% 3.5 mph WSW5.6 kmh WSW 9.2 mph14.8 kmh 29.85 in1010.8 mb - 0.02 in0.5 mm 0.05 in1.3 mm
10:10 AM 36.5°F2.5°C 32.1°F0.1°C 84% 4.6 mph W7.4 kmh W 9.2 mph14.8 kmh 29.85 in1010.8 mb - 0.02 in0.5 mm 0.05 in1.3 mm
10:00 AM 36.5°F2.5°C 32.4°F0.2°C 85% 2.3 mph WSW3.7 kmh WSW 6.9 mph11.1 kmh 29.85 in1010.8 mb - 0.02 in0.5 mm 0.05 in1.3 mm
09:55 AM 36.1°F2.3°C 32.1°F0.1°C 85% 6.9 mph WNW11.1 kmh WNW 10.4 mph16.7 kmh 29.85 in1010.8 mb - 0.02 in0.5 mm 0.04 in1.0 mm
09:50 AM 36.0°F2.2°C 31.6°F-0.2°C 84% 5.8 mph W9.3 kmh W 9.2 mph14.8 kmh 29.84 in1010.5 mb - 0.02 in0.5 mm 0.04 in1.0 mm
09:45 AM 36.0°F2.2°C 31.9°F-0.1°C 85% 4.6 mph WSW7.4 kmh WSW 8.1 mph13.0 kmh 29.85 in1010.8 mb - 0.02 in0.5 mm 0.04 in1.0 mm
09:40 AM 35.9°F2.2°C 32.4°F0.2°C 87% 2.3 mph WSW3.7 kmh WSW 5.8 mph9.3 kmh 29.84 in1010.5 mb - 0.02 in0.5 mm 0.04 in1.0 mm
09:35 AM 35.6°F2.0°C 32.1°F0.1°C 87% 4.6 mph WNW7.4 kmh WNW 10.4 mph16.7 kmh 29.84 in1010.5 mb - 0.01 in0.3 mm 0.04 in1.0 mm
09:30 AM 35.4°F1.9°C 31.9°F-0.1°C 87% 5.8 mph WSW9.3 kmh WSW 11.5 mph18.5 kmh 29.84 in1010.5 mb - 0.02 in0.5 mm 0.04 in1.0 mm
09:25 AM 35.3°F1.8°C 31.8°F-0.1°C 87% 3.5 mph WNW5.6 kmh WNW 6.9 mph11.1 kmh 29.84 in1010.5 mb - 0.01 in0.3 mm 0.03 in0.8 mm
09:20 AM 35.2°F1.8°C 32.0°F0.0°C 88% 3.5 mph WSW5.6 kmh WSW 5.8 mph9.3 kmh 29.84 in1010.5 mb - 0.01 in0.3 mm 0.03 in0.8 mm
09:15 AM 35.1°F1.7°C 31.9°F-0.1°C 88% 3.5 mph WSW5.6 kmh WSW 6.9 mph11.1 kmh 29.84 in1010.5 mb - 0.01 in0.3 mm 0.03 in0.8 mm
09:10 AM 34.9°F1.6°C 31.7°F-0.2°C 88% 3.5 mph WSW5.6 kmh WSW 5.8 mph9.3 kmh 29.84 in1010.5 mb - 0.01 in0.3 mm 0.03 in0.8 mm
09:00 AM 34.9°F1.6°C 31.7°F-0.2°C 88% 3.5 mph W5.6 kmh W 5.8 mph9.3 kmh 29.84 in1010.5 mb - 0.01 in0.3 mm 0.03 in0.8 mm
08:55 AM 34.7°F1.5°C 31.8°F-0.1°C 89% 4.6 mph W7.4 kmh W 8.1 mph13.0 kmh 29.83 in1010.2 mb - 0.00 in0.0 mm 0.02 in0.5 mm
08:50 AM 34.5°F1.4°C 31.6°F-0.2°C 89% 4.6 mph W7.4 kmh W 6.9 mph11.1 kmh 29.83 in1010.2 mb - 0.00 in0.0 mm 0.02 in0.5 mm
08:45 AM 34.5°F1.4°C 31.9°F-0.1°C 90% 3.5 mph WSW5.6 kmh WSW 4.6 mph7.4 kmh 29.83 in1010.2 mb - 0.00 in0.0 mm 0.02 in0.5 mm
08:40 AM 34.3°F1.3°C 31.7°F-0.2°C 90% 2.3 mph WSW3.7 kmh WSW 5.8 mph9.3 kmh 29.83 in1010.2 mb - 0.00 in0.0 mm 0.02 in0.5 mm
08:35 AM 34.2°F1.2°C 31.5°F-0.3°C 90% 5.8 mph W9.3 kmh W 10.4 mph16.7 kmh 29.83 in1010.2 mb - 0.00 in0.0 mm 0.02 in0.5 mm
08:30 AM 34.2°F1.2°C 31.8°F-0.1°C 91% 3.5 mph W5.6 kmh W 8.1 mph13.0 kmh 29.83 in1010.2 mb - 0.00 in0.0 mm 0.02 in0.5 mm
08:25 AM 34.0°F1.1°C 31.6°F-0.2°C 91% 3.5 mph WSW5.6 kmh WSW 5.8 mph9.3 kmh 29.84 in1010.5 mb - 0.00 in0.0 mm 0.02 in0.5 mm
08:20 AM 33.8°F1.0°C 31.7°F-0.2°C 92% 2.3 mph WSW3.7 kmh WSW 6.9 mph11.1 kmh 29.83 in1010.2 mb - 0.00 in0.0 mm 0.02 in0.5 mm
08:15 AM 33.8°F1.0°C 31.7°F-0.2°C 92% 2.3 mph WSW3.7 kmh WSW 4.6 mph7.4 kmh 29.84 in1010.5 mb - 0.00 in0.0 mm 0.02 in0.5 mm
08:10 AM 33.6°F0.9°C 31.8°F-0.1°C 93% 4.6 mph WSW7.4 kmh WSW 9.2 mph14.8 kmh 29.83 in1010.2 mb - 0.00 in0.0 mm 0.02 in0.5 mm
08:00 AM 33.4°F0.8°C 31.6°F-0.2°C 93% 4.6 mph W7.4 kmh W 8.1 mph13.0 kmh 29.84 in1010.5 mb - 0.00 in0.0 mm 0.02 in0.5 mm
07:55 AM 33.4°F0.8°C 31.6°F-0.2°C 93% 3.5 mph WSW5.6 kmh WSW 6.9 mph11.1 kmh 29.84 in1010.5 mb - 0.00 in0.0 mm 0.02 in0.5 mm
07:50 AM 33.3°F0.7°C 31.7°F-0.2°C 94% 3.5 mph WSW5.6 kmh WSW 8.1 mph13.0 kmh 29.84 in1010.5 mb - 0.00 in0.0 mm 0.02 in0.5 mm
07:45 AM 33.1°F0.6°C 31.5°F-0.3°C 94% 4.6 mph W7.4 kmh W 8.1 mph13.0 kmh 29.84 in1010.5 mb - 0.00 in0.0 mm 0.02 in0.5 mm
07:40 AM 33.1°F0.6°C 31.5°F-0.3°C 94% 3.5 mph WSW5.6 kmh WSW 4.6 mph7.4 kmh 29.84 in1010.5 mb - 0.00 in0.0 mm 0.02 in0.5 mm
07:35 AM 33.1°F0.6°C 31.5°F-0.3°C 94% 1.2 mph WSW1.9 kmh WSW 3.5 mph5.6 kmh 29.83 in1010.2 mb - 0.00 in0.0 mm 0.02 in0.5 mm
07:30 AM 32.9°F0.5°C 31.4°F-0.3°C 94% 1.2 mph WSW1.9 kmh WSW 3.5 mph5.6 kmh 29.83 in1010.2 mb - 0.00 in0.0 mm 0.02 in0.5 mm
07:25 AM 32.9°F0.5°C 31.4°F-0.3°C 94% 2.3 mph WSW3.7 kmh WSW 4.6 mph7.4 kmh 29.83 in1010.2 mb - 0.00 in0.0 mm 0.02 in0.5 mm
07:20 AM 32.7°F0.4°C 31.2°F-0.4°C 94% 1.2 mph WSW1.9 kmh WSW 3.5 mph5.6 kmh 29.84 in1010.5 mb - 0.00 in0.0 mm 0.02 in0.5 mm
07:15 AM 32.7°F0.4°C 31.2°F-0.4°C 94% 2.3 mph WSW3.7 kmh WSW 3.5 mph5.6 kmh 29.83 in1010.2 mb - 0.00 in0.0 mm 0.02 in0.5 mm
07:10 AM 32.9°F0.5°C 31.4°F-0.3°C 94% 2.3 mph WSW3.7 kmh WSW 3.5 mph5.6 kmh 29.83 in1010.2 mb - 0.00 in0.0 mm 0.02 in0.5 mm
07:00 AM 32.7°F0.4°C 31.2°F-0.4°C 94% 2.3 mph WSW3.7 kmh WSW 2.3 mph3.7 kmh 29.83 in1010.2 mb - 0.00 in0.0 mm 0.02 in0.5 mm
06:55 AM 32.8°F0.4°C 31.2°F-0.4°C 94% 1.2 mph WSW1.9 kmh WSW 2.3 mph3.7 kmh 29.83 in1010.2 mb - 0.00 in0.0 mm 0.02 in0.5 mm
06:50 AM 32.7°F0.4°C 31.2°F-0.4°C 94% 2.3 mph WSW3.7 kmh WSW 3.5 mph5.6 kmh 29.83 in1010.2 mb - 0.00 in0.0 mm 0.02 in0.5 mm
06:45 AM 32.9°F0.5°C 31.4°F-0.3°C 94% 1.2 mph WSW1.9 kmh WSW 2.3 mph3.7 kmh 29.83 in1010.2 mb - 0.00 in0.0 mm 0.02 in0.5 mm
06:40 AM 32.7°F0.4°C 31.2°F-0.4°C 94% 1.2 mph WSW1.9 kmh WSW 2.3 mph3.7 kmh 29.83 in1010.2 mb - 0.00 in0.0 mm 0.02 in0.5 mm
06:35 AM 32.9°F0.5°C 31.4°F-0.3°C 94% 1.2 mph W1.9 kmh W 3.5 mph5.6 kmh 29.83 in1010.2 mb - 0.00 in0.0 mm 0.02 in0.5 mm
06:30 AM 32.9°F0.5°C 31.4°F-0.3°C 94% 2.3 mph WSW3.7 kmh WSW 3.5 mph5.6 kmh 29.84 in1010.5 mb - 0.00 in0.0 mm 0.02 in0.5 mm
06:25 AM 32.9°F0.5°C 31.4°F-0.3°C 94% 2.3 mph WSW3.7 kmh WSW 3.5 mph5.6 kmh 29.84 in1010.5 mb - 0.00 in0.0 mm 0.02 in0.5 mm
06:20 AM 32.9°F0.5°C 31.4°F-0.3°C 94% 1.2 mph WSW1.9 kmh WSW 3.5 mph5.6 kmh 29.83 in1010.2 mb - 0.00 in0.0 mm 0.02 in0.5 mm
06:15 AM 32.9°F0.5°C 31.4°F-0.3°C 94% 1.2 mph WSW1.9 kmh WSW 1.2 mph1.9 kmh 29.83 in1010.2 mb - 0.00 in0.0 mm 0.02 in0.5 mm
06:10 AM 32.9°F0.5°C 31.4°F-0.3°C 94% 1.2 mph WSW1.9 kmh WSW 3.5 mph5.6 kmh 29.83 in1010.2 mb - 0.00 in0.0 mm 0.02 in0.5 mm
06:00 AM 32.9°F0.5°C 31.6°F-0.2°C 95% 1.2 mph WSW1.9 kmh WSW 2.3 mph3.7 kmh 29.84 in1010.5 mb - 0.00 in0.0 mm 0.02 in0.5 mm
05:55 AM 32.9°F0.5°C 31.6°F-0.2°C 95% 1.2 mph W1.9 kmh W 4.6 mph7.4 kmh 29.83 in1010.2 mb - 0.00 in0.0 mm 0.02 in0.5 mm
05:50 AM 32.7°F0.4°C 31.4°F-0.3°C 95% 1.2 mph W1.9 kmh W 3.5 mph5.6 kmh 29.84 in1010.5 mb - 0.00 in0.0 mm 0.02 in0.5 mm
05:45 AM 32.7°F0.4°C 31.4°F-0.3°C 95% 1.2 mph WSW1.9 kmh WSW 2.3 mph3.7 kmh 29.84 in1010.5 mb - 0.00 in0.0 mm 0.02 in0.5 mm
05:40 AM 32.7°F0.4°C 31.4°F-0.3°C 95% 1.2 mph WSW1.9 kmh WSW 3.5 mph5.6 kmh 29.84 in1010.5 mb - 0.00 in0.0 mm 0.02 in0.5 mm
05:35 AM 32.7°F0.4°C 31.4°F-0.3°C 95% 2.3 mph WSW3.7 kmh WSW 2.3 mph3.7 kmh 29.83 in1010.2 mb - 0.00 in0.0 mm 0.02 in0.5 mm
05:30 AM 32.7°F0.4°C 31.4°F-0.3°C 95% 2.3 mph WSW3.7 kmh WSW 3.5 mph5.6 kmh 29.83 in1010.2 mb - 0.00 in0.0 mm 0.02 in0.5 mm
05:25 AM 32.7°F0.4°C 31.4°F-0.3°C 95% 1.2 mph WSW1.9 kmh WSW 3.5 mph5.6 kmh 29.83 in1010.2 mb - 0.00 in0.0 mm 0.02 in0.5 mm
05:20 AM 32.7°F0.4°C 31.4°F-0.3°C 95% 1.2 mph WSW1.9 kmh WSW 2.3 mph3.7 kmh 29.82 in1009.8 mb - 0.00 in0.0 mm 0.02 in0.5 mm
05:15 AM 32.7°F0.4°C 31.4°F-0.3°C 95% 1.2 mph WSW1.9 kmh WSW 1.2 mph1.9 kmh 29.83 in1010.2 mb - 0.00 in0.0 mm 0.02 in0.5 mm
05:10 AM 32.7°F0.4°C 31.4°F-0.3°C 95% 1.2 mph WSW1.9 kmh WSW 2.3 mph3.7 kmh 29.82 in1009.8 mb - 0.00 in0.0 mm 0.02 in0.5 mm
05:00 AM 32.7°F0.4°C 31.4°F-0.3°C 95% 1.2 mph W1.9 kmh W 3.5 mph5.6 kmh 29.82 in1009.8 mb - 0.00 in0.0 mm 0.02 in0.5 mm
04:55 AM 32.7°F0.4°C 31.4°F-0.3°C 95% 1.2 mph WSW1.9 kmh WSW 4.6 mph7.4 kmh 29.82 in1009.8 mb - 0.00 in0.0 mm 0.02 in0.5 mm
04:50 AM 32.8°F0.4°C 31.5°F-0.3°C 95% 1.2 mph WSW1.9 kmh WSW 2.3 mph3.7 kmh 29.82 in1009.8 mb - 0.00 in0.0 mm 0.02 in0.5 mm
04:45 AM 32.9°F0.5°C 31.6°F-0.2°C 95% 1.2 mph WSW1.9 kmh WSW 2.3 mph3.7 kmh 29.82 in1009.8 mb - 0.00 in0.0 mm 0.02 in0.5 mm
04:40 AM 32.9°F0.5°C 31.6°F-0.2°C 95% 1.2 mph WSW1.9 kmh WSW 2.3 mph3.7 kmh 29.82 in1009.8 mb - 0.00 in0.0 mm 0.02 in0.5 mm
04:35 AM 32.9°F0.5°C 31.6°F-0.2°C 95% 1.2 mph WSW1.9 kmh WSW 3.5 mph5.6 kmh 29.83 in1010.2 mb - 0.00 in0.0 mm 0.02 in0.5 mm
04:30 AM 32.9°F0.5°C 31.6°F-0.2°C 95% 3.5 mph W5.6 kmh W 5.8 mph9.3 kmh 29.82 in1009.8 mb - 0.00 in0.0 mm 0.02 in0.5 mm
04:25 AM 32.9°F0.5°C 31.6°F-0.2°C 95% 2.3 mph WSW3.7 kmh WSW 4.6 mph7.4 kmh 29.83 in1010.2 mb - 0.00 in0.0 mm 0.02 in0.5 mm
04:20 AM 32.9°F0.5°C 31.6°F-0.2°C 95% 2.3 mph WSW3.7 kmh WSW 4.6 mph7.4 kmh 29.82 in1009.8 mb - 0.00 in0.0 mm 0.02 in0.5 mm
04:15 AM 32.9°F0.5°C 31.6°F-0.2°C 95% 2.3 mph WSW3.7 kmh WSW 4.6 mph7.4 kmh 29.82 in1009.8 mb - 0.00 in0.0 mm 0.02 in0.5 mm
04:10 AM 32.7°F0.4°C 31.4°F-0.3°C 95% 2.3 mph WSW3.7 kmh WSW 4.6 mph7.4 kmh 29.83 in1010.2 mb - 0.00 in0.0 mm 0.02 in0.5 mm
04:00 AM 32.9°F0.5°C 31.6°F-0.2°C 95% 3.5 mph WSW5.6 kmh WSW 4.6 mph7.4 kmh 29.83 in1010.2 mb - 0.00 in0.0 mm 0.02 in0.5 mm
03:55 AM 32.9°F0.5°C 31.6°F-0.2°C 95% 2.3 mph WSW3.7 kmh WSW 3.5 mph5.6 kmh 29.84 in1010.5 mb - 0.00 in0.0 mm 0.02 in0.5 mm
03:50 AM 32.7°F0.4°C 31.4°F-0.3°C 95% 1.2 mph WSW1.9 kmh WSW 3.5 mph5.6 kmh 29.83 in1010.2 mb - 0.00 in0.0 mm 0.02 in0.5 mm
03:45 AM 32.7°F0.4°C 31.4°F-0.3°C 95% 2.3 mph WSW3.7 kmh WSW 4.6 mph7.4 kmh 29.83 in1010.2 mb - 0.00 in0.0 mm 0.02 in0.5 mm
03:40 AM 32.7°F0.4°C 31.4°F-0.3°C 95% 1.2 mph WSW1.9 kmh WSW 2.3 mph3.7 kmh 29.83 in1010.2 mb - 0.00 in0.0 mm 0.02 in0.5 mm
03:35 AM 32.7°F0.4°C 31.4°F-0.3°C 95% 2.3 mph WSW3.7 kmh WSW 4.6 mph7.4 kmh 29.82 in1009.8 mb - 0.01 in0.3 mm 0.02 in0.5 mm
03:30 AM 32.7°F0.4°C 31.4°F-0.3°C 95% 1.2 mph WSW1.9 kmh WSW 3.5 mph5.6 kmh 29.83 in1010.2 mb - 0.01 in0.3 mm 0.02 in0.5 mm
03:25 AM 32.7°F0.4°C 31.4°F-0.3°C 95% 2.3 mph WSW3.7 kmh WSW 4.6 mph7.4 kmh 29.83 in1010.2 mb - 0.01 in0.3 mm 0.02 in0.5 mm
03:20 AM 32.7°F0.4°C 31.4°F-0.3°C 95% 2.3 mph WSW3.7 kmh WSW 3.5 mph5.6 kmh 29.83 in1010.2 mb - 0.01 in0.3 mm 0.02 in0.5 mm
03:15 AM 32.7°F0.4°C 31.4°F-0.3°C 95% 2.3 mph WSW3.7 kmh WSW 5.8 mph9.3 kmh 29.83 in1010.2 mb - 0.01 in0.3 mm 0.02 in0.5 mm
03:10 AM 32.7°F0.4°C 31.4°F-0.3°C 95% 1.2 mph W1.9 kmh W 3.5 mph5.6 kmh 29.83 in1010.2 mb - 0.01 in0.3 mm 0.02 in0.5 mm
03:00 AM 32.7°F0.4°C 31.4°F-0.3°C 95% 2.3 mph W3.7 kmh W 3.5 mph5.6 kmh 29.83 in1010.2 mb - 0.00 in0.0 mm 0.01 in0.3 mm
02:55 AM 32.7°F0.4°C 31.4°F-0.3°C 95% 1.2 mph WSW1.9 kmh WSW 2.3 mph3.7 kmh 29.83 in1010.2 mb - 0.00 in0.0 mm 0.01 in0.3 mm
02:50 AM 32.9°F0.5°C 31.6°F-0.2°C 95% 1.2 mph W1.9 kmh W 1.2 mph1.9 kmh 29.83 in1010.2 mb - 0.00 in0.0 mm 0.01 in0.3 mm
02:45 AM 32.9°F0.5°C 31.6°F-0.2°C 95% 1.2 mph WSW1.9 kmh WSW 2.3 mph3.7 kmh 29.83 in1010.2 mb - 0.00 in0.0 mm 0.01 in0.3 mm
02:40 AM 32.9°F0.5°C 31.6°F-0.2°C 95% 1.2 mph WSW1.9 kmh WSW 2.3 mph3.7 kmh 29.83 in1010.2 mb - 0.00 in0.0 mm 0.01 in0.3 mm
02:35 AM 32.9°F0.5°C 31.6°F-0.2°C 95% 2.3 mph WSW3.7 kmh WSW 2.3 mph3.7 kmh 29.83 in1010.2 mb - 0.00 in0.0 mm 0.01 in0.3 mm
02:30 AM 32.9°F0.5°C 31.6°F-0.2°C 95% 2.3 mph W3.7 kmh W 4.6 mph7.4 kmh 29.83 in1010.2 mb - 0.00 in0.0 mm 0.01 in0.3 mm
02:25 AM 32.9°F0.5°C 31.6°F-0.2°C 95% 1.2 mph W1.9 kmh W 2.3 mph3.7 kmh 29.83 in1010.2 mb - 0.00 in0.0 mm 0.01 in0.3 mm
02:20 AM 32.9°F0.5°C 31.6°F-0.2°C 95% 2.3 mph W3.7 kmh W 4.6 mph7.4 kmh 29.83 in1010.2 mb - 0.00 in0.0 mm 0.01 in0.3 mm
02:15 AM 32.9°F0.5°C 31.6°F-0.2°C 95% 3.5 mph WNW5.6 kmh WNW 5.8 mph9.3 kmh 29.83 in1010.2 mb - 0.00 in0.0 mm 0.01 in0.3 mm
02:10 AM 32.9°F0.5°C 31.6°F-0.2°C 95% 1.2 mph W1.9 kmh W 2.3 mph3.7 kmh 29.83 in1010.2 mb - 0.00 in0.0 mm 0.01 in0.3 mm
02:00 AM 33.1°F0.6°C 31.8°F-0.1°C 95% 2.3 mph W3.7 kmh W 3.5 mph5.6 kmh 29.83 in1010.2 mb - 0.01 in0.3 mm 0.01 in0.3 mm
01:55 AM 33.1°F0.6°C 31.8°F-0.1°C 95% 2.3 mph WSW3.7 kmh WSW 4.6 mph7.4 kmh 29.83 in1010.2 mb - 0.01 in0.3 mm 0.01 in0.3 mm
01:50 AM 33.0°F0.6°C 31.8°F-0.1°C 95% 1.2 mph W1.9 kmh W 3.5 mph5.6 kmh 29.82 in1009.8 mb - 0.01 in0.3 mm 0.01 in0.3 mm
01:45 AM 33.1°F0.6°C 31.8°F-0.1°C 95% 2.3 mph W3.7 kmh W 3.5 mph5.6 kmh 29.82 in1009.8 mb - 0.01 in0.3 mm 0.01 in0.3 mm
01:40 AM 33.1°F0.6°C 31.8°F-0.1°C 95% 1.2 mph WNW1.9 kmh WNW 3.5 mph5.6 kmh 29.82 in1009.8 mb - 0.01 in0.3 mm 0.01 in0.3 mm
01:35 AM 33.1°F0.6°C 31.8°F-0.1°C 95% 2.3 mph WNW3.7 kmh WNW 4.6 mph7.4 kmh 29.82 in1009.8 mb - 0.01 in0.3 mm 0.01 in0.3 mm
01:30 AM 33.1°F0.6°C 31.8°F-0.1°C 95% 2.3 mph W3.7 kmh W 4.6 mph7.4 kmh 29.82 in1009.8 mb - 0.01 in0.3 mm 0.01 in0.3 mm
01:25 AM 33.1°F0.6°C 31.8°F-0.1°C 95% 2.3 mph WNW3.7 kmh WNW 4.6 mph7.4 kmh 29.82 in1009.8 mb - 0.01 in0.3 mm 0.01 in0.3 mm
01:20 AM 33.1°F0.6°C 31.8°F-0.1°C 95% 3.5 mph W5.6 kmh W 5.8 mph9.3 kmh 29.82 in1009.8 mb - 0.00 in0.0 mm 0.00 in0.0 mm
01:15 AM 33.1°F0.6°C 31.8°F-0.1°C 95% 3.5 mph W5.6 kmh W 5.8 mph9.3 kmh 29.82 in1009.8 mb - 0.00 in0.0 mm 0.00 in0.0 mm
01:10 AM 33.1°F0.6°C 32.1°F0.1°C 96% 2.3 mph WSW3.7 kmh WSW 5.8 mph9.3 kmh 29.82 in1009.8 mb - 0.00 in0.0 mm 0.00 in0.0 mm
01:00 AM 33.1°F0.6°C 32.1°F0.1°C 96% 3.5 mph WNW5.6 kmh WNW 4.6 mph7.4 kmh 29.82 in1009.8 mb - 0.00 in0.0 mm 0.05 in1.3 mm
12:55 AM 33.0°F0.6°C 32.0°F0.0°C 96% 2.3 mph WNW3.7 kmh WNW 5.8 mph9.3 kmh 29.82 in1009.8 mb - 0.00 in0.0 mm 0.05 in1.3 mm
12:50 AM 32.9°F0.5°C 31.9°F-0.1°C 96% 3.5 mph W5.6 kmh W 5.8 mph9.3 kmh 29.82 in1009.8 mb - 0.00 in0.0 mm 0.05 in1.3 mm
12:45 AM 33.1°F0.6°C 32.1°F0.1°C 96% 2.3 mph W3.7 kmh W 4.6 mph7.4 kmh 29.82 in1009.8 mb - 0.00 in0.0 mm 0.05 in1.3 mm
12:40 AM 32.9°F0.5°C 31.9°F-0.1°C 96% 2.3 mph W3.7 kmh W 4.6 mph7.4 kmh 29.82 in1009.8 mb - 0.00 in0.0 mm 0.05 in1.3 mm
12:35 AM 32.9°F0.5°C 31.9°F-0.1°C 96% 2.3 mph WNW3.7 kmh WNW 4.6 mph7.4 kmh 29.82 in1009.8 mb - 0.00 in0.0 mm 0.05 in1.3 mm
12:30 AM 32.9°F0.5°C 31.9°F-0.1°C 96% 2.3 mph WNW3.7 kmh WNW 3.5 mph5.6 kmh 29.82 in1009.8 mb - 0.00 in0.0 mm 0.05 in1.3 mm
12:25 AM 32.7°F0.4°C 31.7°F-0.2°C 96% 2.3 mph WNW3.7 kmh WNW 3.5 mph5.6 kmh 29.82 in1009.8 mb - 0.01 in0.3 mm 0.05 in1.3 mm
12:20 AM 32.7°F0.4°C 31.7°F-0.2°C 96% 2.3 mph WNW3.7 kmh WNW 3.5 mph5.6 kmh 29.82 in1009.8 mb - 0.01 in0.3 mm 0.04 in1.0 mm
12:15 AM 32.7°F0.4°C 31.7°F-0.2°C 96% 1.2 mph W1.9 kmh W 4.6 mph7.4 kmh 29.82 in1009.8 mb - 0.01 in0.3 mm 0.03 in0.8 mm
12:10 AM 32.7°F0.4°C 31.7°F-0.2°C 96% 1.2 mph WNW1.9 kmh WNW 2.3 mph3.7 kmh 29.82 in1009.8 mb - 0.01 in0.3 mm 0.02 in0.5 mm
12:00 AM 32.7°F0.4°C 31.7°F-0.2°C 96% 1.2 mph WSW1.9 kmh WSW 3.5 mph5.6 kmh 29.82 in1009.8 mb - 0.01 in0.3 mm 0.01 in0.3 mm